SWR4ET LSZH-EDDF
Flight info
| Callsign | SWR4ET |
|---|---|
| Flight time | 0h 56m |
| Altitude | 20000 |
| Route | DEGES Z1 SUDEN T164 KOVAN T163 SPESA |
| Aircraft | A320/M-SDE3FGHIRWY/LB1 |
Departure
| Time | 2026-05-05 17:36 |
|---|---|
| Airport | Zürich Airport (LSZH) |
Arrival
| Time | 2026-05-05 18:32 |
|---|---|
| Airport | Frankfurt Main Airport (EDDF) |
| Time | Latitude | Longitude | Altitude | Speed | Heading |
|---|---|---|---|---|---|
| 2026-05-05 16:46 | 47.45344 | 8.55754 | 1413 ft | 0 kts | 6° |
| 2026-05-05 17:25 | 47.45339 | 8.55753 | 1407 ft | 2 kts | 6° |
| 2026-05-05 17:25 | 47.45313 | 8.55749 | 1409 ft | 3 kts | 6° |
| 2026-05-05 17:25 | 47.45293 | 8.55746 | 1413 ft | 3 kts | 5° |
| 2026-05-05 17:26 | 47.45274 | 8.55745 | 1411 ft | 3 kts | 342° |
| 2026-05-05 17:26 | 47.45264 | 8.55752 | 1409 ft | 2 kts | 279° |
| 2026-05-05 17:26 | 47.45262 | 8.55769 | 1412 ft | 3 kts | 276° |
| 2026-05-05 17:26 | 47.45261 | 8.55786 | 1407 ft | 0 kts | 276° |
| 2026-05-05 17:27 | 47.45261 | 8.55787 | 1407 ft | 0 kts | 276° |
| 2026-05-05 17:30 | 47.45263 | 8.55762 | 1408 ft | 7 kts | 276° |
| 2026-05-05 17:30 | 47.45271 | 8.55651 | 1407 ft | 10 kts | 276° |
| 2026-05-05 17:30 | 47.45303 | 8.55560 | 1413 ft | 11 kts | 332° |
| 2026-05-05 17:31 | 47.45376 | 8.55509 | 1408 ft | 12 kts | 335° |
| 2026-05-05 17:31 | 47.45463 | 8.55449 | 1410 ft | 15 kts | 334° |
| 2026-05-05 17:31 | 47.45568 | 8.55376 | 1405 ft | 16 kts | 335° |
| 2026-05-05 17:31 | 47.45660 | 8.55336 | 1401 ft | 12 kts | 19° |
| 2026-05-05 17:32 | 47.45672 | 8.55408 | 1405 ft | 6 kts | 98° |
| 2026-05-05 17:32 | 47.45668 | 8.55452 | 1401 ft | 5 kts | 97° |
| 2026-05-05 17:32 | 47.45661 | 8.55545 | 1407 ft | 11 kts | 93° |
| 2026-05-05 17:32 | 47.45656 | 8.55641 | 1404 ft | 7 kts | 96° |
| 2026-05-05 17:33 | 47.45649 | 8.55714 | 1406 ft | 12 kts | 97° |
| 2026-05-05 17:33 | 47.45640 | 8.55840 | 1408 ft | 10 kts | 96° |
| 2026-05-05 17:33 | 47.45633 | 8.55925 | 1410 ft | 8 kts | 96° |
| 2026-05-05 17:33 | 47.45625 | 8.56045 | 1410 ft | 13 kts | 96° |
| 2026-05-05 17:34 | 47.45617 | 8.56161 | 1416 ft | 10 kts | 96° |
| 2026-05-05 17:34 | 47.45619 | 8.56243 | 1414 ft | 6 kts | 67° |
| 2026-05-05 17:34 | 47.45661 | 8.56268 | 1412 ft | 9 kts | 5° |
| 2026-05-05 17:34 | 47.45752 | 8.56282 | 1415 ft | 18 kts | 5° |
| 2026-05-05 17:35 | 47.45877 | 8.56303 | 1414 ft | 19 kts | 6° |
| 2026-05-05 17:35 | 47.46018 | 8.56324 | 1411 ft | 22 kts | 5° |
| 2026-05-05 17:35 | 47.46172 | 8.56359 | 1416 ft | 22 kts | 2° |
| 2026-05-05 17:35 | 47.46299 | 8.56215 | 1408 ft | 29 kts | 317° |
| 2026-05-05 17:36 | 47.46584 | 8.55826 | 1396 ft | 91 kts | 317° |
| 2026-05-05 17:36 | 47.47203 | 8.54981 | 1384 ft | 150 kts | 317° |
| 2026-05-05 17:36 | 47.48024 | 8.53874 | 1866 ft | 160 kts | 316° |
| 2026-05-05 17:36 | 47.48859 | 8.52760 | 2658 ft | 162 kts | 315° |
| 2026-05-05 17:37 | 47.49729 | 8.51683 | 3451 ft | 166 kts | 322° |
| 2026-05-05 17:37 | 47.50744 | 8.50817 | 4140 ft | 170 kts | 326° |
| 2026-05-05 17:37 | 47.51790 | 8.49975 | 4705 ft | 177 kts | 322° |
| 2026-05-05 17:37 | 47.52734 | 8.48716 | 5078 ft | 189 kts | 302° |
| 2026-05-05 17:38 | 47.53356 | 8.47040 | 5488 ft | 175 kts | 284° |
| 2026-05-05 17:38 | 47.53549 | 8.45163 | 5966 ft | 199 kts | 266° |
| 2026-05-05 17:38 | 47.53264 | 8.43102 | 6441 ft | 212 kts | 245° |
| 2026-05-05 17:38 | 47.52593 | 8.41137 | 7221 ft | 215 kts | 243° |
| 2026-05-05 17:39 | 47.51943 | 8.39144 | 8149 ft | 215 kts | 243° |
| 2026-05-05 17:39 | 47.50991 | 8.37468 | 9023 ft | 217 kts | 211° |
| 2026-05-05 17:39 | 47.49533 | 8.36851 | 9911 ft | 224 kts | 184° |
| 2026-05-05 17:39 | 47.47968 | 8.37375 | 10573 ft | 242 kts | 156° |
| 2026-05-05 17:40 | 47.46731 | 8.39133 | 11356 ft | 257 kts | 125° |
| 2026-05-05 17:40 | 47.45934 | 8.41548 | 12111 ft | 265 kts | 117° |
| 2026-05-05 17:40 | 47.45448 | 8.44178 | 12878 ft | 277 kts | 100° |
| 2026-05-05 17:40 | 47.45406 | 8.47174 | 13316 ft | 300 kts | 91° |
| 2026-05-05 17:41 | 47.45482 | 8.50330 | 13606 ft | 323 kts | 90° |
| 2026-05-05 17:41 | 47.45579 | 8.53820 | 13836 ft | 347 kts | 90° |
| 2026-05-05 17:41 | 47.45693 | 8.57455 | 14026 ft | 371 kts | 89° |
| 2026-05-05 17:41 | 47.45863 | 8.61390 | 14498 ft | 383 kts | 88° |
| 2026-05-05 17:42 | 47.46045 | 8.65280 | 15156 ft | 388 kts | 88° |
| 2026-05-05 17:42 | 47.46228 | 8.69265 | 15864 ft | 391 kts | 89° |
| 2026-05-05 17:42 | 47.46398 | 8.73283 | 16575 ft | 394 kts | 89° |
| 2026-05-05 17:42 | 47.46557 | 8.77336 | 17285 ft | 397 kts | 89° |
| 2026-05-05 17:43 | 47.46636 | 8.81416 | 18006 ft | 397 kts | 95° |
| 2026-05-05 17:43 | 47.46280 | 8.85462 | 18646 ft | 397 kts | 105° |
| 2026-05-05 17:43 | 47.45678 | 8.89457 | 19237 ft | 400 kts | 105° |
| 2026-05-05 17:43 | 47.45080 | 8.93484 | 19711 ft | 403 kts | 105° |
| 2026-05-05 17:44 | 47.44494 | 8.97530 | 19854 ft | 404 kts | 104° |
| 2026-05-05 17:44 | 47.43908 | 9.01649 | 19887 ft | 415 kts | 104° |
| 2026-05-05 17:44 | 47.43314 | 9.05844 | 19874 ft | 417 kts | 104° |
| 2026-05-05 17:44 | 47.42718 | 9.10044 | 19879 ft | 418 kts | 104° |
| 2026-05-05 17:45 | 47.42228 | 9.14272 | 19885 ft | 420 kts | 97° |
| 2026-05-05 17:45 | 47.42234 | 9.18591 | 19854 ft | 423 kts | 86° |
| 2026-05-05 17:45 | 47.42791 | 9.22878 | 19876 ft | 428 kts | 75° |
| 2026-05-05 17:45 | 47.43883 | 9.26959 | 19869 ft | 429 kts | 64° |
| 2026-05-05 17:46 | 47.45351 | 9.30799 | 19874 ft | 430 kts | 61° |
| 2026-05-05 17:46 | 47.46937 | 9.34544 | 19874 ft | 430 kts | 53° |
| 2026-05-05 17:46 | 47.48915 | 9.37845 | 19869 ft | 430 kts | 43° |
| 2026-05-05 17:46 | 47.51264 | 9.40609 | 20324 ft | 431 kts | 33° |
| 2026-05-05 17:47 | 47.53901 | 9.42700 | 20940 ft | 432 kts | 21° |
| 2026-05-05 17:47 | 47.56735 | 9.44230 | 21504 ft | 434 kts | 16° |
| 2026-05-05 17:47 | 47.59675 | 9.45183 | 21814 ft | 435 kts | 5° |
| 2026-05-05 17:47 | 47.62689 | 9.45412 | 21872 ft | 433 kts | 359° |
| 2026-05-05 17:48 | 47.65702 | 9.45501 | 21863 ft | 433 kts | 360° |
| 2026-05-05 17:48 | 47.68710 | 9.45628 | 21867 ft | 433 kts | 0° |
| 2026-05-05 17:48 | 47.71721 | 9.45788 | 21868 ft | 433 kts | 1° |
| 2026-05-05 17:48 | 47.74737 | 9.45963 | 21864 ft | 433 kts | 1° |
| 2026-05-05 17:49 | 47.77738 | 9.46140 | 21863 ft | 433 kts | 1° |
| 2026-05-05 17:49 | 47.80747 | 9.46304 | 21863 ft | 432 kts | 0° |
| 2026-05-05 17:49 | 47.83751 | 9.46383 | 21859 ft | 432 kts | 359° |
| 2026-05-05 17:49 | 47.86762 | 9.46384 | 21857 ft | 433 kts | 358° |
| 2026-05-05 17:50 | 47.89773 | 9.46338 | 21853 ft | 433 kts | 358° |
| 2026-05-05 17:50 | 47.92748 | 9.46281 | 21840 ft | 433 kts | 358° |
| 2026-05-05 17:50 | 47.95759 | 9.46240 | 21843 ft | 433 kts | 359° |
| 2026-05-05 17:50 | 47.98766 | 9.46219 | 21834 ft | 433 kts | 359° |
| 2026-05-05 17:51 | 48.01777 | 9.46215 | 21837 ft | 433 kts | 359° |
| 2026-05-05 17:51 | 48.04790 | 9.46214 | 21841 ft | 433 kts | 359° |
| 2026-05-05 17:51 | 48.07805 | 9.46208 | 21831 ft | 433 kts | 359° |
| 2026-05-05 17:51 | 48.10818 | 9.46175 | 21828 ft | 433 kts | 358° |
| 2026-05-05 17:52 | 48.13830 | 9.46054 | 21829 ft | 433 kts | 357° |
| 2026-05-05 17:52 | 48.16842 | 9.45866 | 21823 ft | 433 kts | 356° |
| 2026-05-05 17:52 | 48.19852 | 9.45644 | 21823 ft | 433 kts | 356° |
| 2026-05-05 17:52 | 48.22864 | 9.45414 | 21827 ft | 433 kts | 356° |
| 2026-05-05 17:53 | 48.25876 | 9.45195 | 21848 ft | 433 kts | 356° |
| 2026-05-05 17:53 | 48.28886 | 9.44994 | 21842 ft | 433 kts | 356° |
| 2026-05-05 17:53 | 48.31897 | 9.44801 | 21844 ft | 433 kts | 356° |
| 2026-05-05 17:53 | 48.34913 | 9.44614 | 21844 ft | 433 kts | 356° |
| 2026-05-05 17:54 | 48.37920 | 9.44431 | 21835 ft | 433 kts | 356° |
| 2026-05-05 17:54 | 48.40924 | 9.44244 | 21840 ft | 432 kts | 356° |
| 2026-05-05 17:54 | 48.43932 | 9.44055 | 21828 ft | 432 kts | 356° |
| 2026-05-05 17:54 | 48.46938 | 9.43866 | 21834 ft | 432 kts | 356° |
| 2026-05-05 17:55 | 48.49933 | 9.43672 | 21827 ft | 432 kts | 356° |
| 2026-05-05 17:55 | 48.52932 | 9.43481 | 21814 ft | 426 kts | 356° |
| 2026-05-05 17:55 | 48.55888 | 9.43295 | 21833 ft | 431 kts | 356° |
| 2026-05-05 17:55 | 48.58887 | 9.43109 | 21835 ft | 432 kts | 356° |
| 2026-05-05 17:56 | 48.61900 | 9.42924 | 21833 ft | 432 kts | 356° |
| 2026-05-05 17:56 | 48.64897 | 9.42739 | 21834 ft | 432 kts | 356° |
| 2026-05-05 17:56 | 48.67903 | 9.42546 | 21830 ft | 432 kts | 356° |
| 2026-05-05 17:56 | 48.70914 | 9.42347 | 21834 ft | 432 kts | 356° |
| 2026-05-05 17:57 | 48.73912 | 9.42149 | 21831 ft | 432 kts | 356° |
| 2026-05-05 17:57 | 48.76918 | 9.41951 | 21831 ft | 432 kts | 356° |
| 2026-05-05 17:57 | 48.79924 | 9.41757 | 21834 ft | 432 kts | 356° |
| 2026-05-05 17:57 | 48.82924 | 9.41568 | 21831 ft | 432 kts | 356° |
| 2026-05-05 17:58 | 48.85939 | 9.41383 | 21830 ft | 432 kts | 356° |
| 2026-05-05 17:58 | 48.88934 | 9.41200 | 21827 ft | 432 kts | 356° |
| 2026-05-05 17:58 | 48.91950 | 9.41009 | 21826 ft | 432 kts | 356° |
| 2026-05-05 17:58 | 48.94906 | 9.40819 | 21832 ft | 432 kts | 356° |
| 2026-05-05 17:59 | 48.97967 | 9.40621 | 21831 ft | 432 kts | 356° |
| 2026-05-05 17:59 | 49.00955 | 9.40427 | 21835 ft | 432 kts | 356° |
| 2026-05-05 17:59 | 49.03955 | 9.40234 | 21835 ft | 431 kts | 356° |
| 2026-05-05 17:59 | 49.06905 | 9.40042 | 21835 ft | 431 kts | 356° |
| 2026-05-05 18:00 | 49.09902 | 9.39843 | 21830 ft | 431 kts | 356° |
| 2026-05-05 18:00 | 49.12909 | 9.39641 | 21828 ft | 431 kts | 356° |
| 2026-05-05 18:00 | 49.15898 | 9.39444 | 21827 ft | 431 kts | 357° |
| 2026-05-05 18:00 | 49.18895 | 9.39255 | 21823 ft | 431 kts | 357° |
| 2026-05-05 18:01 | 49.21893 | 9.39067 | 21828 ft | 431 kts | 357° |
| 2026-05-05 18:01 | 49.24887 | 9.38875 | 21819 ft | 431 kts | 357° |
| 2026-05-05 18:01 | 49.27881 | 9.38683 | 21756 ft | 429 kts | 357° |
| 2026-05-05 18:01 | 49.30818 | 9.38496 | 21579 ft | 415 kts | 357° |
| 2026-05-05 18:02 | 49.33657 | 9.38313 | 21393 ft | 403 kts | 356° |
| 2026-05-05 18:02 | 49.36442 | 9.38133 | 20940 ft | 399 kts | 356° |
| 2026-05-05 18:02 | 49.39215 | 9.37949 | 20416 ft | 397 kts | 357° |
| 2026-05-05 18:02 | 49.41960 | 9.37766 | 20030 ft | 391 kts | 356° |
| 2026-05-05 18:03 | 49.44629 | 9.37588 | 19824 ft | 380 kts | 356° |
| 2026-05-05 18:03 | 49.47254 | 9.37409 | 19440 ft | 375 kts | 356° |
| 2026-05-05 18:03 | 49.49842 | 9.37234 | 19016 ft | 372 kts | 356° |
| 2026-05-05 18:03 | 49.52421 | 9.37064 | 18585 ft | 370 kts | 356° |
| 2026-05-05 18:04 | 49.54984 | 9.36903 | 18170 ft | 367 kts | 356° |
| 2026-05-05 18:04 | 49.57531 | 9.36745 | 17706 ft | 365 kts | 356° |
| 2026-05-05 18:04 | 49.60058 | 9.36579 | 17254 ft | 362 kts | 355° |
| 2026-05-05 18:04 | 49.62567 | 9.36409 | 16829 ft | 359 kts | 355° |
| 2026-05-05 18:05 | 49.65056 | 9.36243 | 16423 ft | 357 kts | 355° |
| 2026-05-05 18:05 | 49.67526 | 9.36079 | 15995 ft | 354 kts | 355° |
| 2026-05-05 18:05 | 49.69982 | 9.35914 | 15602 ft | 351 kts | 355° |
| 2026-05-05 18:05 | 49.72415 | 9.35751 | 15208 ft | 349 kts | 355° |
| 2026-05-05 18:06 | 49.74791 | 9.35591 | 14821 ft | 346 kts | 355° |
| 2026-05-05 18:06 | 49.75600 | 9.35536 | 14689 ft | 345 kts | 355° |
| 2026-05-05 18:06 | 49.79565 | 9.35297 | 14037 ft | 341 kts | 358° |
| 2026-05-05 18:06 | 49.81928 | 9.35593 | 13667 ft | 341 kts | 5° |
| 2026-05-05 18:07 | 49.84283 | 9.35976 | 13181 ft | 340 kts | 4° |
| 2026-05-05 18:07 | 49.86634 | 9.36339 | 12726 ft | 339 kts | 4° |
| 2026-05-05 18:07 | 49.88972 | 9.36694 | 12288 ft | 336 kts | 4° |
| 2026-05-05 18:07 | 49.91295 | 9.37044 | 11897 ft | 334 kts | 4° |
| 2026-05-05 18:08 | 49.93608 | 9.37303 | 11802 ft | 333 kts | 359° |
| 2026-05-05 18:08 | 49.95919 | 9.37153 | 11822 ft | 329 kts | 351° |
| 2026-05-05 18:08 | 49.98109 | 9.36473 | 11750 ft | 314 kts | 345° |
| 2026-05-05 18:08 | 50.00208 | 9.35691 | 11530 ft | 307 kts | 344° |
| 2026-05-05 18:09 | 50.02274 | 9.34906 | 11196 ft | 304 kts | 344° |
| 2026-05-05 18:09 | 50.04323 | 9.34124 | 10838 ft | 302 kts | 344° |
| 2026-05-05 18:09 | 50.06357 | 9.33315 | 10447 ft | 302 kts | 344° |
| 2026-05-05 18:09 | 50.08377 | 9.32423 | 10076 ft | 301 kts | 338° |
| 2026-05-05 18:10 | 50.10101 | 9.30682 | 9741 ft | 294 kts | 311° |
| 2026-05-05 18:10 | 50.11153 | 9.28026 | 9302 ft | 288 kts | 288° |
| 2026-05-05 18:10 | 50.11774 | 9.25069 | 8885 ft | 286 kts | 284° |
| 2026-05-05 18:10 | 50.12339 | 9.22105 | 8496 ft | 284 kts | 284° |
| 2026-05-05 18:11 | 50.12893 | 9.19155 | 8112 ft | 282 kts | 284° |
| 2026-05-05 18:11 | 50.13442 | 9.16228 | 7737 ft | 280 kts | 284° |
| 2026-05-05 18:11 | 50.13987 | 9.13346 | 7388 ft | 276 kts | 284° |
| 2026-05-05 18:11 | 50.14527 | 9.10488 | 7025 ft | 274 kts | 284° |
| 2026-05-05 18:12 | 50.14870 | 9.08604 | 6766 ft | 272 kts | 280° |
| 2026-05-05 18:12 | 50.14954 | 9.05721 | 6564 ft | 264 kts | 260° |
| 2026-05-05 18:12 | 50.14466 | 9.03021 | 6289 ft | 256 kts | 248° |
| 2026-05-05 18:12 | 50.13861 | 9.00444 | 5961 ft | 251 kts | 248° |
| 2026-05-05 18:13 | 50.13266 | 8.97905 | 5620 ft | 247 kts | 248° |
| 2026-05-05 18:13 | 50.12682 | 8.95408 | 5287 ft | 243 kts | 248° |
| 2026-05-05 18:13 | 50.12107 | 8.92953 | 4960 ft | 240 kts | 249° |
| 2026-05-05 18:13 | 50.11539 | 8.90529 | 4648 ft | 236 kts | 249° |
| 2026-05-05 18:14 | 50.10978 | 8.88140 | 4321 ft | 233 kts | 249° |
| 2026-05-05 18:14 | 50.10424 | 8.85784 | 4012 ft | 230 kts | 249° |
| 2026-05-05 18:14 | 50.09880 | 8.83473 | 3704 ft | 224 kts | 249° |
| 2026-05-05 18:14 | 50.09352 | 8.81233 | 3410 ft | 216 kts | 250° |
| 2026-05-05 18:15 | 50.08841 | 8.79067 | 3135 ft | 210 kts | 250° |
| 2026-05-05 18:15 | 50.08346 | 8.76968 | 2850 ft | 203 kts | 250° |
| 2026-05-05 18:15 | 50.07875 | 8.74973 | 2605 ft | 187 kts | 250° |
| 2026-05-05 18:15 | 50.07442 | 8.73143 | 2343 ft | 175 kts | 250° |
| 2026-05-05 18:16 | 50.07026 | 8.71385 | 2114 ft | 178 kts | 250° |
| 2026-05-05 18:16 | 50.06604 | 8.69605 | 1870 ft | 169 kts | 250° |
| 2026-05-05 18:16 | 50.06215 | 8.67965 | 1673 ft | 152 kts | 250° |
| 2026-05-05 18:16 | 50.05865 | 8.66489 | 1456 ft | 139 kts | 250° |
| 2026-05-05 18:17 | 50.05540 | 8.65117 | 1271 ft | 134 kts | 250° |
| 2026-05-05 18:17 | 50.05221 | 8.63766 | 1090 ft | 132 kts | 250° |
| 2026-05-05 18:17 | 50.04909 | 8.62428 | 915 ft | 131 kts | 249° |
| 2026-05-05 18:17 | 50.04588 | 8.61086 | 746 ft | 133 kts | 248° |
| 2026-05-05 18:18 | 50.04261 | 8.59727 | 549 ft | 135 kts | 249° |
| 2026-05-05 18:18 | 50.03926 | 8.58291 | 635 ft | 156 kts | 249° |
| 2026-05-05 18:18 | 50.03523 | 8.56591 | 1323 ft | 178 kts | 249° |
| 2026-05-05 18:18 | 50.03065 | 8.54713 | 1967 ft | 194 kts | 250° |
| 2026-05-05 18:19 | 50.02580 | 8.52698 | 2629 ft | 201 kts | 250° |
| 2026-05-05 18:19 | 50.02087 | 8.50652 | 3425 ft | 203 kts | 248° |
| 2026-05-05 18:19 | 50.01476 | 8.48676 | 4215 ft | 204 kts | 241° |
| 2026-05-05 18:19 | 50.00782 | 8.46712 | 4840 ft | 209 kts | 241° |
| 2026-05-05 18:20 | 50.00333 | 8.44526 | 4970 ft | 223 kts | 268° |
| 2026-05-05 18:20 | 50.00725 | 8.42167 | 5054 ft | 233 kts | 300° |
| 2026-05-05 18:20 | 50.01910 | 8.40443 | 5054 ft | 239 kts | 332° |
| 2026-05-05 18:20 | 50.03541 | 8.39933 | 5055 ft | 245 kts | 4° |
| 2026-05-05 18:21 | 50.05140 | 8.40820 | 5057 ft | 248 kts | 36° |
| 2026-05-05 18:21 | 50.06296 | 8.42794 | 5057 ft | 249 kts | 56° |
| 2026-05-05 18:21 | 50.07243 | 8.45055 | 5007 ft | 250 kts | 58° |
| 2026-05-05 18:21 | 50.08163 | 8.47351 | 5006 ft | 250 kts | 59° |
| 2026-05-05 18:22 | 50.09077 | 8.49647 | 5004 ft | 250 kts | 59° |
| 2026-05-05 18:22 | 50.09991 | 8.51952 | 5006 ft | 250 kts | 59° |
| 2026-05-05 18:22 | 50.10903 | 8.54254 | 5007 ft | 250 kts | 59° |
| 2026-05-05 18:22 | 50.11817 | 8.56551 | 5009 ft | 249 kts | 59° |
| 2026-05-05 18:23 | 50.12732 | 8.58845 | 5006 ft | 249 kts | 59° |
| 2026-05-05 18:23 | 50.13587 | 8.61179 | 5004 ft | 248 kts | 68° |
| 2026-05-05 18:23 | 50.14175 | 8.63706 | 5007 ft | 248 kts | 73° |
| 2026-05-05 18:23 | 50.14692 | 8.66231 | 5007 ft | 248 kts | 74° |
| 2026-05-05 18:24 | 50.15210 | 8.68796 | 5010 ft | 248 kts | 73° |
| 2026-05-05 18:24 | 50.15730 | 8.71392 | 5008 ft | 248 kts | 74° |
| 2026-05-05 18:24 | 50.16245 | 8.73957 | 5011 ft | 248 kts | 74° |
| 2026-05-05 18:24 | 50.16759 | 8.76527 | 5010 ft | 248 kts | 74° |
| 2026-05-05 18:25 | 50.17271 | 8.79097 | 4987 ft | 249 kts | 74° |
| 2026-05-05 18:25 | 50.17613 | 8.80808 | 4847 ft | 248 kts | 74° |
| 2026-05-05 18:25 | 50.18294 | 8.84231 | 4578 ft | 246 kts | 73° |
| 2026-05-05 18:25 | 50.18725 | 8.86802 | 4366 ft | 244 kts | 88° |
| 2026-05-05 18:26 | 50.18432 | 8.89343 | 4165 ft | 238 kts | 120° |
| 2026-05-05 18:26 | 50.17347 | 8.91188 | 4038 ft | 232 kts | 153° |
| 2026-05-05 18:26 | 50.15876 | 8.92179 | 4012 ft | 230 kts | 166° |
| 2026-05-05 18:26 | 50.14313 | 8.92234 | 4007 ft | 224 kts | 199° |
| 2026-05-05 18:27 | 50.13036 | 8.91084 | 4018 ft | 205 kts | 220° |
| 2026-05-05 18:27 | 50.11984 | 8.89634 | 4011 ft | 204 kts | 223° |
| 2026-05-05 18:27 | 50.11019 | 8.88047 | 4004 ft | 198 kts | 239° |
| 2026-05-05 18:27 | 50.10500 | 8.86124 | 3963 ft | 186 kts | 249° |
| 2026-05-05 18:28 | 50.09630 | 8.82410 | 3559 ft | 183 kts | 250° |
| 2026-05-05 18:28 | 50.09195 | 8.80565 | 3355 ft | 181 kts | 250° |
| 2026-05-05 18:28 | 50.08762 | 8.78728 | 3091 ft | 179 kts | 250° |
| 2026-05-05 18:29 | 50.08338 | 8.76931 | 2843 ft | 174 kts | 250° |
| 2026-05-05 18:29 | 50.07924 | 8.75179 | 2605 ft | 171 kts | 250° |
| 2026-05-05 18:29 | 50.07517 | 8.73457 | 2384 ft | 169 kts | 250° |
| 2026-05-05 18:29 | 50.07111 | 8.71745 | 2156 ft | 166 kts | 250° |
| 2026-05-05 18:30 | 50.06733 | 8.70148 | 1948 ft | 148 kts | 250° |
| 2026-05-05 18:30 | 50.06392 | 8.68712 | 1749 ft | 137 kts | 250° |
| 2026-05-05 18:30 | 50.06070 | 8.67355 | 1576 ft | 132 kts | 250° |
| 2026-05-05 18:30 | 50.05755 | 8.66026 | 1393 ft | 130 kts | 250° |
| 2026-05-05 18:31 | 50.05436 | 8.64667 | 1226 ft | 139 kts | 250° |
| 2026-05-05 18:31 | 50.05105 | 8.63258 | 1019 ft | 137 kts | 250° |
| 2026-05-05 18:31 | 50.04775 | 8.61883 | 844 ft | 134 kts | 249° |
| 2026-05-05 18:31 | 50.04456 | 8.60533 | 663 ft | 133 kts | 250° |
| 2026-05-05 18:32 | 50.04134 | 8.59195 | 479 ft | 132 kts | 250° |
| 2026-05-05 18:32 | 50.03825 | 8.57892 | 365 ft | 118 kts | 249° |
| 2026-05-05 18:32 | 50.03593 | 8.56922 | 355 ft | 68 kts | 250° |
| 2026-05-05 18:32 | 50.03447 | 8.56310 | 357 ft | 45 kts | 250° |
| 2026-05-05 18:33 | 50.03443 | 8.55968 | 346 ft | 24 kts | 281° |
| 2026-05-05 18:33 | 50.03470 | 8.55778 | 344 ft | 11 kts | 280° |
| 2026-05-05 18:33 | 50.03472 | 8.55757 | 344 ft | 0 kts | 279° |
| 2026-05-05 18:34 | 50.03477 | 8.55703 | 345 ft | 12 kts | 278° |
| 2026-05-05 18:35 | 50.03493 | 8.55536 | 352 ft | 17 kts | 274° |
| 2026-05-05 18:35 | 50.03463 | 8.55347 | 349 ft | 20 kts | 249° |
| 2026-05-05 18:35 | 50.03410 | 8.55135 | 346 ft | 22 kts | 249° |
| 2026-05-05 18:35 | 50.03355 | 8.54899 | 346 ft | 23 kts | 250° |
| 2026-05-05 18:36 | 50.03293 | 8.54648 | 338 ft | 26 kts | 249° |
| 2026-05-05 18:36 | 50.03293 | 8.54493 | 339 ft | 13 kts | 323° |
| 2026-05-05 18:36 | 50.03368 | 8.54450 | 339 ft | 10 kts | 340° |
| 2026-05-05 18:36 | 50.03420 | 8.54419 | 351 ft | 6 kts | 340° |
| 2026-05-05 18:37 | 50.03450 | 8.54401 | 346 ft | 9 kts | 340° |
| 2026-05-05 18:37 | 50.03547 | 8.54346 | 345 ft | 18 kts | 340° |
| 2026-05-05 18:37 | 50.03602 | 8.54316 | 349 ft | 0 kts | 340° |
| 2026-05-05 18:39 | 50.03603 | 8.54315 | 341 ft | 2 kts | 340° |
| 2026-05-05 18:40 | 50.03653 | 8.54330 | 349 ft | 9 kts | 43° |
| 2026-05-05 18:40 | 50.03680 | 8.54409 | 348 ft | 8 kts | 68° |
| 2026-05-05 18:40 | 50.03696 | 8.54475 | 346 ft | 6 kts | 70° |
| 2026-05-05 18:40 | 50.03725 | 8.54596 | 353 ft | 19 kts | 70° |
| 2026-05-05 18:41 | 50.03771 | 8.54792 | 350 ft | 20 kts | 70° |
| 2026-05-05 18:41 | 50.03821 | 8.55000 | 348 ft | 21 kts | 69° |
| 2026-05-05 18:41 | 50.03874 | 8.55221 | 356 ft | 23 kts | 70° |
| 2026-05-05 18:41 | 50.03930 | 8.55455 | 357 ft | 20 kts | 70° |
| 2026-05-05 18:42 | 50.03964 | 8.55599 | 354 ft | 9 kts | 70° |
| 2026-05-05 18:42 | 50.03984 | 8.55682 | 353 ft | 6 kts | 70° |
| 2026-05-05 18:42 | 50.03986 | 8.55688 | 352 ft | 0 kts | 69° |
| 2026-05-05 18:44 | 50.03986 | 8.55690 | 352 ft | 2 kts | 69° |
| 2026-05-05 18:45 | 50.04012 | 8.55796 | 356 ft | 17 kts | 69° |
| 2026-05-05 18:45 | 50.04046 | 8.55942 | 356 ft | 8 kts | 68° |
| 2026-05-05 18:45 | 50.04065 | 8.56018 | 352 ft | 8 kts | 70° |
| 2026-05-05 18:45 | 50.04096 | 8.56149 | 355 ft | 16 kts | 70° |
| 2026-05-05 18:46 | 50.04133 | 8.56307 | 356 ft | 15 kts | 69° |
| 2026-05-05 18:46 | 50.04166 | 8.56443 | 355 ft | 13 kts | 69° |
| 2026-05-05 18:46 | 50.04212 | 8.56636 | 362 ft | 23 kts | 69° |
| 2026-05-05 18:46 | 50.04269 | 8.56872 | 364 ft | 24 kts | 70° |
| 2026-05-05 18:47 | 50.04328 | 8.57124 | 366 ft | 25 kts | 70° |
| 2026-05-05 18:47 | 50.04393 | 8.57390 | 365 ft | 27 kts | 69° |
| 2026-05-05 18:47 | 50.04457 | 8.57659 | 370 ft | 24 kts | 70° |
| 2026-05-05 18:47 | 50.04517 | 8.57910 | 366 ft | 25 kts | 70° |
| 2026-05-05 18:48 | 50.04571 | 8.58140 | 363 ft | 24 kts | 69° |
| 2026-05-05 18:48 | 50.04628 | 8.58375 | 369 ft | 23 kts | 70° |
| 2026-05-05 18:48 | 50.04686 | 8.58622 | 369 ft | 25 kts | 69° |
| 2026-05-05 18:48 | 50.04744 | 8.58840 | 368 ft | 17 kts | 69° |
| 2026-05-05 18:49 | 50.04785 | 8.59012 | 368 ft | 17 kts | 69° |
| 2026-05-05 18:49 | 50.04816 | 8.59137 | 372 ft | 8 kts | 60° |
| 2026-05-05 18:49 | 50.04866 | 8.59130 | 368 ft | 9 kts | 339° |
| 2026-05-05 18:49 | 50.04898 | 8.59112 | 371 ft | 1 kts | 340° |
| 2026-05-05 18:50 | 50.04901 | 8.59110 | 371 ft | 0 kts | 340° |